Time;durP1;ratioP1;P1;durP2;ratioP2;P2;SDS_P1;SDS_P2;PMS_P1;PMS_P2;Temp;Humidity;BMP_temperature;BMP_pressure;BME280_temperature;BME280_humidity;BME280_pressure;Samples;Min_cycle;Max_cycle;Signal;HPM_P1;HPM_P2
2022/02/10 00:20:57;;;;;;;17.65;11.57;;;11.20;99.90;;;;;;5086400;28;20117;-77
2022/02/10 00:34:47;;;;;;;15.90;11.60;;;11.00;99.90;;;;;;5086458;28;20059;-77
2022/02/10 00:37:18;;;;;;;17.58;11.80;;;10.90;99.90;;;;;;5085576;28;20024;-78
2022/02/10 00:42:21;;;;;;;18.73;12.15;;;10.80;99.90;;;;;;5084120;28;20118;-77
2022/02/10 00:44:47;;;;;;;20.35;11.63;;;10.80;99.90;;;;;;5088419;28;20099;-76
2022/02/10 00:47:13;;;;;;;14.43;11.68;;;10.70;99.90;;;;;;5086111;28;20032;-76
2022/02/10 00:49:39;;;;;;;18.10;12.23;;;10.60;99.90;;;;;;5084162;28;20035;-77
2022/02/10 00:52:06;;;;;;;16.30;11.43;;;10.60;99.90;;;;;;5087306;28;20046;-76
2022/02/10 00:54:32;;;;;;;21.38;13.00;;;10.60;99.90;;;;;;5086549;28;20039;-77
2022/02/10 00:56:58;;;;;;;17.65;11.48;;;10.50;99.90;;;;;;5084246;28;20400;-77
2022/02/10 01:12:47;;;;;;;21.27;14.32;;;10.20;99.90;;;;;;5085065;28;20027;-76
2022/02/10 01:31:41;;;;;;;20.10;13.48;;;10.20;99.90;;;;;;5089460;28;20066;-77
2022/02/10 01:34:07;;;;;;;20.75;13.45;;;10.10;99.90;;;;;;5081662;28;20025;-77
2022/02/10 01:36:33;;;;;;;24.25;15.88;;;10.10;99.90;;;;;;5086420;28;20147;-76
2022/02/10 01:38:59;;;;;;;28.90;16.55;;;10.00;99.90;;;;;;5084384;28;20107;-77
2022/02/10 02:03:20;;;;;;;26.38;18.20;;;9.80;99.90;;;;;;5086093;28;20059;-77
2022/02/10 02:05:52;;;;;;;27.60;18.10;;;9.70;99.90;;;;;;5081216;28;20456;-75
2022/02/10 02:08:25;;;;;;;32.33;17.60;;;9.70;99.90;;;;;;5087042;28;20041;-76
2022/02/10 02:10:52;;;;;;;28.30;18.60;;;9.60;99.90;;;;;;5081855;28;20077;-76
2022/02/10 02:13:18;;;;;;;31.23;21.35;;;9.70;99.90;;;;;;5089788;28;20115;-76
2022/02/10 02:15:44;;;;;;;37.58;21.25;;;9.60;99.90;;;;;;5083374;28;20111;-76
2022/02/10 02:18:09;;;;;;;32.95;20.63;;;9.60;99.90;;;;;;5087984;28;20024;-75
2022/02/10 02:20:35;;;;;;;32.92;19.73;;;9.50;99.90;;;;;;5081130;28;20060;-76
2022/02/10 02:23:01;;;;;;;32.70;20.95;;;9.50;99.90;;;;;;5087026;28;20028;-76
2022/02/10 02:25:26;;;;;;;40.22;21.58;;;9.50;99.90;;;;;;5084240;28;20029;-76
2022/02/10 02:27:56;;;;;;;34.22;20.30;;;9.50;99.90;;;;;;5085418;28;20032;-75
2022/02/10 02:30:35;;;;;;;33.15;20.98;;;9.50;99.90;;;;;;5085538;28;20464;-76
2022/02/10 03:08:26;;;;;;;42.10;25.73;;;9.10;99.90;;;;;;5090729;28;20450;-76
2022/02/10 03:11:07;;;;;;;44.90;26.13;;;9.10;99.90;;;;;;5089233;28;20085;-76
2022/02/10 03:13:38;;;;;;;42.65;25.23;;;9.00;99.90;;;;;;5087128;28;20111;-76
2022/02/10 03:16:37;;;;;;;50.38;28.58;;;9.00;99.90;;;;;;5093069;28;20118;-76
2022/02/10 03:19:18;;;;;;;49.20;25.65;;;9.00;99.90;;;;;;5089372;28;20032;-81
2022/02/10 04:23:03;;;;;;;56.40;31.67;;;9.00;99.90;;;;;;5085476;28;20032;-76
2022/02/10 05:08:29;;;;;;;63.65;35.22;;;9.00;99.90;;;;;;5069281;28;20043;-76
2022/02/10 05:16:38;;;;;;;59.90;34.90;;;9.10;99.90;;;;;;5091064;28;20035;-76
2022/02/10 05:22:00;;;;;;;61.38;33.85;;;9.10;99.90;;;;;;5087348;28;20031;-76
2022/02/10 05:35:26;;;;;;;64.55;37.75;;;9.10;99.90;;;;;;5088620;28;20036;-76
2022/02/10 05:38:14;;;;;;;53.72;34.30;;;9.10;99.90;;;;;;5090349;28;20047;-76
2022/02/10 07:04:16;;;;;;;58.40;32.25;;;9.00;99.90;;;;;;5090211;28;20097;-76
2022/02/10 07:47:27;;;;;;;62.22;36.60;;;9.00;99.90;;;;;;5088073;28;20028;-76
2022/02/10 07:57:51;;;;;;;62.35;35.50;;;9.00;99.90;;;;;;5086360;28;20481;-77
2022/02/10 08:57:31;;;;;;;76.68;37.53;;;9.10;99.90;;;;;;5087018;28;20031;-77
2022/02/10 09:13:32;;;;;;;75.97;38.13;;;9.10;99.90;;;;;;5087904;28;20044;-77
2022/02/10 09:16:35;;;;;;;83.47;39.50;;;9.20;99.90;;;;;;5083075;28;20020;-77
2022/02/10 09:25:37;;;;;;;83.25;39.65;;;9.30;99.90;;;;;;5089625;28;20040;-83
2022/02/10 09:59:12;;;;;;;65.55;30.58;;;9.40;99.90;;;;;;5091636;28;20035;-77
2022/02/10 10:01:53;;;;;;;73.43;31.95;;;9.50;99.90;;;;;;5092271;28;20024;-77
2022/02/10 10:04:33;;;;;;;56.60;28.98;;;9.50;99.90;;;;;;5092514;28;20039;-77
2022/02/10 10:07:51;;;;;;;66.35;32.20;;;9.40;99.90;;;;;;5091457;28;20023;-76
2022/02/10 10:21:06;;;;;;;76.18;36.55;;;9.40;99.90;;;;;;5096132;28;20024;-76
2022/02/10 10:23:54;;;;;;;75.25;34.53;;;9.50;99.90;;;;;;5094402;28;20452;-77
2022/02/10 10:57:25;;;;;;;40.58;23.95;;;9.90;99.90;;;;;;5089343;28;20035;-75
2022/02/10 12:36:30;;;;;;;29.15;18.40;;;10.60;99.90;;;;;;5087752;28;20046;-76
2022/02/10 12:39:17;;;;;;;35.63;19.77;;;10.60;99.90;;;;;;5084722;28;20468;-76
2022/02/10 14:12:51;;;;;;;15.82;6.18;;;10.80;99.90;;;;;;5083046;28;20028;-76
2022/02/10 14:15:52;;;;;;;16.42;6.65;;;10.80;99.90;;;;;;5084848;28;20043;-75
2022/02/10 14:17:50;;;;;;;11.68;5.82;;;10.80;99.90;;;;;;5076667;28;20119;-76
2022/02/10 14:25:35;;;;;;;15.65;6.82;;;10.70;99.90;;;;;;5084332;28;20035;-76
2022/02/10 14:26:04;;;;;;;13.63;6.80;;;10.70;99.90;;;;;;5080742;28;20041;-77
2022/02/10 14:28:31;;;;;;;15.50;6.70;;;10.70;99.90;;;;;;5089949;28;20039;-76
2022/02/10 14:30:58;;;;;;;14.38;6.75;;;10.60;99.90;;;;;;5083235;28;20484;-77
2022/02/10 14:33:31;;;;;;;16.80;7.45;;;10.60;99.90;;;;;;5084942;28;20031;-77
2022/02/10 14:36:25;;;;;;;12.25;6.18;;;10.60;99.90;;;;;;5088361;28;20024;-76
2022/02/10 15:46:33;;;;;;;12.93;5.53;;;10.20;99.90;;;;;;5084268;28;20070;-76
2022/02/10 16:11:11;;;;;;;13.02;6.40;;;10.00;99.90;;;;;;5086003;28;20055;-77
2022/02/10 16:18:51;;;;;;;21.08;6.88;;;10.00;99.90;;;;;;5091987;28;20105;-75
2022/02/10 16:21:37;;;;;;;16.80;6.78;;;10.00;99.90;;;;;;5085855;28;20112;-76
2022/02/10 16:24:14;;;;;;;15.95;6.82;;;10.00;99.90;;;;;;5084430;28;20528;-76
2022/02/10 16:26:52;;;;;;;11.30;7.20;;;9.90;99.90;;;;;;5089360;28;20028;-75
2022/02/10 16:29:19;;;;;;;13.55;6.63;;;9.80;99.90;;;;;;5082224;28;20028;-76
2022/02/10 16:31:45;;;;;;;15.43;7.45;;;9.80;99.90;;;;;;5087267;28;20062;-76
2022/02/10 16:34:12;;;;;;;14.13;7.50;;;9.70;99.90;;;;;;5084809;28;20056;-76
2022/02/10 16:36:39;;;;;;;13.98;7.00;;;9.60;99.90;;;;;;5088303;28;20021;-78
2022/02/10 16:39:05;;;;;;;15.85;7.57;;;9.60;99.90;;;;;;5083940;28;20099;-80
2022/02/10 16:41:31;;;;;;;22.65;8.05;;;9.60;99.90;;;;;;5089393;28;20050;-79
2022/02/10 16:43:56;;;;;;;15.77;8.23;;;9.70;99.90;;;;;;5085676;28;20456;-78
2022/02/10 16:46:22;;;;;;;18.42;8.80;;;9.70;99.90;;;;;;5087356;28;20028;-81
2022/02/10 16:48:48;;;;;;;19.65;8.23;;;9.70;99.90;;;;;;5086411;28;20033;-81
2022/02/10 16:51:14;;;;;;;11.60;7.15;;;9.70;99.90;;;;;;5087060;28;20031;-78
2022/02/10 16:53:44;;;;;;;21.33;7.55;;;9.70;99.90;;;;;;5089018;28;20055;-77
2022/02/10 16:56:15;;;;;;;20.65;6.25;;;9.50;99.90;;;;;;5089747;28;20027;-77
2022/02/10 16:58:49;;;;;;;18.73;6.80;;;9.40;99.90;;;;;;5081915;28;20028;-78
2022/02/10 17:14:06;;;;;;;13.48;6.00;;;9.10;99.90;;;;;;5083356;28;20056;-77
2022/02/10 17:25:19;;;;;;;8.38;3.70;;;9.10;99.90;;;;;;5083742;28;20473;-77
2022/02/10 17:27:53;;;;;;;9.25;4.05;;;9.00;99.90;;;;;;5091054;28;20078;-77
2022/02/10 17:33:17;;;;;;;11.98;4.90;;;9.20;99.90;;;;;;5088611;28;20114;-81
2022/02/10 17:52:16;;;;;;;8.32;2.08;;;8.90;99.90;;;;;;5068830;28;20036;-77
2022/02/10 17:54:43;;;;;;;4.68;2.10;;;8.90;99.90;;;;;;5067845;28;20086;-77
2022/02/10 17:57:09;;;;;;;5.25;2.10;;;9.00;99.90;;;;;;5075231;28;20115;-77
2022/02/10 17:59:36;;;;;;;4.13;1.75;;;9.00;99.90;;;;;;5090861;28;20028;-77
2022/02/10 18:02:02;;;;;;;10.15;2.80;;;8.90;99.90;;;;;;5087536;28;20069;-76
2022/02/10 18:04:29;;;;;;;8.07;3.70;;;8.90;99.90;;;;;;5087971;28;20063;-77
2022/02/10 18:06:57;;;;;;;7.65;3.75;;;9.10;99.90;;;;;;5082677;28;20012;-76
2022/02/10 18:19:54;;;;;;;9.88;5.70;;;8.80;99.90;;;;;;5092842;28;20488;-78
2022/02/10 18:30:24;;;;;;;4.45;1.30;;;8.50;99.90;;;;;;5084208;28;20039;-77
2022/02/10 19:05:50;;;;;;;5.05;2.40;;;8.20;99.90;;;;;;5085874;28;20098;-76
2022/02/10 19:10:54;;;;;;;8.10;2.30;;;8.20;99.90;;;;;;5089924;28;20021;-76
2022/02/10 19:13:22;;;;;;;9.73;2.15;;;8.10;99.90;;;;;;5087311;28;20456;-76
2022/02/10 19:15:50;;;;;;;4.50;2.70;;;8.20;99.90;;;;;;5090924;28;20466;-77
2022/02/10 19:18:16;;;;;;;8.48;2.67;;;8.20;99.90;;;;;;5086980;28;20111;-76
2022/02/10 19:20:42;;;;;;;4.68;2.50;;;8.20;99.90;;;;;;5088586;28;20025;-76
2022/02/10 19:23:09;;;;;;;3.40;2.00;;;8.20;99.90;;;;;;5090749;28;20107;-78
2022/02/10 19:25:39;;;;;;;8.45;2.63;;;8.30;99.90;;;;;;5088744;28;20028;-76
2022/02/10 19:28:07;;;;;;;6.88;2.88;;;8.40;99.90;;;;;;5091613;28;20039;-75
2022/02/10 19:30:36;;;;;;;7.43;3.08;;;8.40;99.90;;;;;;5090661;28;20115;-76
2022/02/10 19:33:04;;;;;;;6.35;3.30;;;8.40;99.90;;;;;;5092255;28;20432;-76
2022/02/10 19:35:33;;;;;;;6.95;3.75;;;8.40;99.90;;;;;;5084395;28;20469;-75
2022/02/10 19:38:02;;;;;;;5.95;3.38;;;8.40;99.90;;;;;;5091943;28;20610;-75
2022/02/10 19:40:35;;;;;;;7.55;3.00;;;8.40;99.90;;;;;;5089125;28;20017;-76
2022/02/10 19:43:00;;;;;;;6.30;3.13;;;8.40;99.90;;;;;;5087201;28;20102;-76
2022/02/10 19:45:26;;;;;;;7.80;4.13;;;8.40;99.90;;;;;;5084319;28;20034;-76
2022/02/10 19:47:52;;;;;;;7.80;3.92;;;8.40;99.90;;;;;;5089571;28;20105;-76
2022/02/10 19:50:25;;;;;;;10.88;5.13;;;8.50;99.90;;;;;;5091558;28;20058;-77
2022/02/10 19:52:53;;;;;;;10.02;4.93;;;8.50;99.90;;;;;;5083139;28;20099;-76
2022/02/10 19:55:22;;;;;;;8.75;4.35;;;8.50;99.90;;;;;;5087877;28;20567;-77
2022/02/10 19:57:51;;;;;;;11.02;4.43;;;8.50;99.90;;;;;;5090580;28;20032;-75
2022/02/10 20:00:22;;;;;;;10.85;5.72;;;8.50;99.90;;;;;;5087405;28;20027;-75
2022/02/10 20:02:50;;;;;;;6.30;4.03;;;8.50;99.90;;;;;;5090450;28;20036;-75
2022/02/10 20:05:20;;;;;;;7.60;4.15;;;8.50;99.90;;;;;;5084880;28;20024;-75
2022/02/10 20:07:51;;;;;;;10.23;4.68;;;8.50;99.90;;;;;;5081870;28;20080;-78
2022/02/10 20:10:17;;;;;;;9.77;4.15;;;8.40;99.90;;;;;;5089339;28;20023;-76
2022/02/10 20:12:42;;;;;;;9.18;4.93;;;8.40;99.90;;;;;;5085673;28;20032;-76
2022/02/10 20:15:10;;;;;;;6.57;4.88;;;8.30;99.90;;;;;;5089282;28;20020;-76
2022/02/10 20:17:36;;;;;;;6.30;4.20;;;8.30;99.90;;;;;;5091132;28;20477;-78
2022/02/10 20:20:03;;;;;;;8.88;3.90;;;8.10;99.90;;;;;;5094028;28;20023;-78
2022/02/10 20:22:33;;;;;;;5.82;4.28;;;7.90;99.90;;;;;;5091822;28;20119;-78
2022/02/10 20:24:59;;;;;;;8.32;3.97;;;7.90;99.90;;;;;;5091951;28;20024;-78
2022/02/10 20:27:25;;;;;;;7.18;3.60;;;7.90;99.90;;;;;;5082418;28;20025;-76
2022/02/10 20:29:51;;;;;;;8.05;3.70;;;8.00;99.90;;;;;;5085063;28;20032;-76
2022/02/10 20:32:17;;;;;;;6.43;3.95;;;7.90;99.90;;;;;;5085960;28;20024;-77
2022/02/10 20:34:43;;;;;;;7.72;3.28;;;7.90;99.90;;;;;;5087375;28;20476;-76
2022/02/10 20:37:08;;;;;;;6.00;3.13;;;8.00;99.90;;;;;;5087441;28;20020;-76
2022/02/10 20:39:36;;;;;;;9.77;3.97;;;8.00;99.90;;;;;;5086139;28;20031;-77
2022/02/10 20:42:06;;;;;;;5.65;3.75;;;8.00;99.90;;;;;;5085928;28;20040;-77
2022/02/10 20:44:33;;;;;;;9.65;3.88;;;8.00;99.90;;;;;;5085972;28;20025;-77
2022/02/10 20:46:59;;;;;;;6.20;3.90;;;8.10;99.90;;;;;;5085191;28;20028;-78
2022/02/10 20:49:27;;;;;;;3.60;2.72;;;8.00;99.90;;;;;;5087391;28;20035;-76
2022/02/10 20:51:54;;;;;;;5.82;2.97;;;8.00;99.90;;;;;;5088097;28;20559;-79
2022/02/10 20:54:22;;;;;;;5.07;3.58;;;7.90;99.90;;;;;;5086717;28;20109;-77
2022/02/10 20:56:47;;;;;;;6.97;3.47;;;8.00;99.90;;;;;;5086118;28;20028;-79
2022/02/10 21:01:58;;;;;;;11.75;4.55;;;7.90;99.90;;;;;;5082923;28;20035;-77
2022/02/10 21:04:29;;;;;;;6.88;4.50;;;7.80;99.90;;;;;;5088451;28;20490;-77
2022/02/10 21:09:46;;;;;;;7.78;4.15;;;7.80;99.90;;;;;;5082161;28;20048;-78
2022/02/10 21:12:13;;;;;;;9.45;4.95;;;7.80;99.90;;;;;;5090020;28;20084;-76
2022/02/10 21:14:39;;;;;;;8.00;4.18;;;7.80;99.90;;;;;;5082495;28;20043;-80
2022/02/10 21:17:08;;;;;;;10.77;4.10;;;7.80;99.90;;;;;;5085184;28;20033;-79
2022/02/10 21:19:35;;;;;;;9.68;4.38;;;7.70;99.90;;;;;;5082347;28;20024;-77
2022/02/10 21:22:07;;;;;;;11.10;4.43;;;7.60;99.90;;;;;;5080580;28;20025;-83
2022/02/10 21:24:33;;;;;;;6.30;3.95;;;7.60;99.90;;;;;;5082556;28;20114;-79
2022/02/10 21:29:31;;;;;;;4.20;3.10;;;7.60;99.90;;;;;;5088766;28;20040;-77
2022/02/10 21:31:58;;;;;;;5.22;3.33;;;7.70;99.90;;;;;;5082878;28;20492;-78
2022/02/10 21:34:27;;;;;;;6.05;3.03;;;7.50;99.90;;;;;;5090517;28;20013;-77
2022/02/10 21:37:04;;;;;;;7.88;3.42;;;7.50;99.90;;;;;;5089566;28;20134;-76
2022/02/10 22:19:11;;;;;;;7.60;4.47;;;7.00;99.90;;;;;;5087905;28;20032;-78
2022/02/10 22:21:34;;;;;;;6.90;4.57;;;7.00;99.90;;;;;;5088483;28;20477;-79
2022/02/10 22:24:03;;;;;;;5.43;4.88;;;7.00;99.90;;;;;;5085128;28;20030;-79
2022/02/10 22:26:31;;;;;;;10.25;5.28;;;7.00;99.90;;;;;;5086045;28;20058;-78
2022/02/10 22:31:34;;;;;;;7.72;4.60;;;6.80;99.90;;;;;;5086992;28;20040;-78
2022/02/10 22:36:46;;;;;;;8.35;4.60;;;6.90;99.90;;;;;;5084361;28;20377;-78
2022/02/10 22:39:13;;;;;;;8.70;4.78;;;6.90;99.90;;;;;;5087884;28;20373;-79
2022/02/10 22:41:40;;;;;;;6.63;4.30;;;6.90;99.90;;;;;;5083410;28;20122;-78
2022/02/10 22:44:06;;;;;;;7.47;3.80;;;6.80;99.90;;;;;;5085749;28;20102;-79
2022/02/10 22:46:33;;;;;;;7.40;4.40;;;6.90;99.90;;;;;;5088953;28;20059;-79
2022/02/10 22:48:59;;;;;;;4.63;4.13;;;6.90;99.90;;;;;;5084578;28;20038;-79
2022/02/10 22:51:28;;;;;;;6.30;4.20;;;6.90;99.90;;;;;;5084201;28;20016;-79
2022/02/10 22:53:54;;;;;;;7.38;3.88;;;6.90;99.90;;;;;;5088269;28;20483;-78
2022/02/10 22:56:23;;;;;;;13.52;4.13;;;6.80;99.90;;;;;;5089656;28;20085;-79
2022/02/10 22:58:54;;;;;;;6.78;4.60;;;6.80;99.90;;;;;;5089142;28;20036;-79
2022/02/10 23:01:20;;;;;;;4.40;3.75;;;6.80;99.90;;;;;;5090465;28;20024;-79
2022/02/10 23:03:46;;;;;;;8.75;5.22;;;6.80;99.90;;;;;;5081442;28;20460;-79
2022/02/10 23:06:13;;;;;;;7.65;4.75;;;6.70;99.90;;;;;;5084930;28;20051;-79
2022/02/10 23:08:40;;;;;;;6.22;4.60;;;6.70;99.90;;;;;;5095520;28;20038;-79
2022/02/10 23:11:07;;;;;;;7.75;4.53;;;6.70;99.90;;;;;;5089540;28;20082;-79
2022/02/10 23:13:34;;;;;;;9.15;6.60;;;6.70;99.90;;;;;;5092557;28;20028;-79
2022/02/10 23:16:03;;;;;;;8.00;4.80;;;6.70;99.90;;;;;;5090272;28;20024;-79
2022/02/10 23:18:31;;;;;;;8.70;5.35;;;6.70;99.90;;;;;;5090233;28;20032;-79
2022/02/10 23:20:59;;;;;;;7.82;5.32;;;6.60;99.90;;;;;;5088980;28;20074;-79
2022/02/10 23:23:28;;;;;;;9.35;5.00;;;6.60;99.90;;;;;;5086797;28;20039;-79
2022/02/10 23:25:55;;;;;;;10.10;4.88;;;6.60;99.90;;;;;;5087429;28;20024;-79
2022/02/10 23:28:25;;;;;;;8.60;5.15;;;6.50;99.90;;;;;;5087626;28;20032;-79
2022/02/10 23:30:52;;;;;;;7.90;5.28;;;6.50;99.90;;;;;;5091237;28;20099;-80
2022/02/10 23:38:37;;;;;;;14.02;5.38;;;6.30;99.90;;;;;;5089189;28;20028;-79
2022/02/10 23:43:50;;;;;;;11.32;5.65;;;6.40;99.90;;;;;;5086580;28;20055;-79
2022/02/10 23:46:17;;;;;;;9.30;5.50;;;6.40;99.90;;;;;;5090423;28;20028;-79
2022/02/10 23:48:43;;;;;;;10.05;5.95;;;6.30;99.90;;;;;;5086756;28;20119;-79
2022/02/10 23:51:09;;;;;;;10.63;6.20;;;6.30;99.90;;;;;;5092163;28;20035;-79
2022/02/10 23:53:35;;;;;;;7.50;5.78;;;6.20;99.90;;;;;;5089903;28;20017;-79
2022/02/10 23:56:05;;;;;;;11.75;6.03;;;6.20;99.90;;;;;;5086721;28;20035;-79
2022/02/10 23:58:40;;;;;;;10.95;6.88;;;6.20;99.90;;;;;;5088523;28;20016;-79
